createdAt,value
2018-10-07T00:00:06.034Z,97.00
2018-10-07T00:02:34.726Z,94.15
2018-10-07T00:05:03.426Z,102.35
2018-10-07T00:07:33.425Z,94.17
2018-10-07T00:10:02.132Z,97.85
2018-10-07T00:12:30.821Z,96.12
2018-10-07T00:14:59.509Z,93.60
2018-10-07T00:17:28.238Z,93.65
2018-10-07T00:19:57.056Z,97.15
2018-10-07T00:22:25.760Z,93.33
2018-10-07T00:24:54.453Z,90.45
2018-10-07T00:27:23.162Z,91.28
2018-10-07T00:29:51.872Z,88.97
2018-10-07T00:32:20.679Z,93.82
2018-10-07T00:34:49.389Z,91.72
2018-10-07T00:37:18.110Z,90.85
2018-10-07T00:39:46.843Z,94.85
2018-10-07T00:42:15.546Z,90.05
2018-10-07T00:44:44.271Z,98.70
2018-10-07T00:47:12.988Z,94.37
2018-10-07T00:49:41.671Z,93.42
2018-10-07T00:52:10.410Z,90.80
2018-10-07T00:54:40.174Z,87.97
2018-10-07T00:57:08.923Z,95.32
2018-10-07T00:59:37.625Z,93.62
2018-10-07T01:02:06.378Z,92.30
2018-10-07T01:04:35.075Z,89.42
2018-10-07T01:07:03.787Z,93.95
2018-10-07T01:09:32.503Z,91.12
2018-10-07T01:12:01.232Z,92.90
2018-10-07T01:14:29.929Z,92.25
2018-10-07T01:16:58.632Z,86.75
2018-10-07T01:19:27.334Z,88.35
2018-10-07T01:21:56.683Z,85.70
2018-10-07T01:24:25.397Z,90.72
2018-10-07T01:26:54.100Z,92.10
2018-10-07T01:29:23.880Z,90.57
2018-10-07T01:31:52.599Z,90.38
2018-10-07T01:34:22.906Z,84.37
2018-10-07T01:36:51.599Z,90.67
2018-10-07T01:39:20.302Z,88.12
2018-10-07T01:41:49.042Z,87.72
2018-10-07T01:44:17.728Z,86.08
2018-10-07T01:46:47.210Z,77.97
2018-10-07T01:49:15.889Z,80.55
2018-10-07T01:51:44.571Z,82.35
2018-10-07T01:54:13.265Z,84.62
2018-10-07T01:56:41.946Z,76.60
2018-10-07T01:59:11.210Z,82.65
2018-10-07T02:01:39.884Z,78.97
2018-10-07T02:04:08.632Z,76.42
2018-10-07T02:06:37.309Z,76.28
2018-10-07T02:09:07.814Z,71.92
2018-10-07T02:11:36.802Z,73.78
2018-10-07T02:14:05.594Z,70.83
2018-10-07T02:16:34.814Z,73.62
2018-10-07T02:19:03.693Z,73.62
2018-10-07T02:21:32.534Z,71.35
2018-10-07T02:24:04.756Z,71.90
2018-10-07T02:26:33.462Z,66.02
2018-10-07T02:29:02.162Z,67.80
2018-10-07T02:31:30.855Z,62.53
2018-10-07T02:33:59.547Z,67.05
2018-10-07T02:36:31.851Z,66.15
2018-10-07T02:39:00.531Z,65.15
2018-10-07T02:41:29.806Z,61.95
2018-10-07T02:43:59.601Z,61.77
2018-10-07T02:46:28.308Z,62.15
2018-10-07T02:48:58.616Z,58.73
2018-10-07T02:51:27.350Z,61.83
2018-10-07T02:53:56.073Z,59.25
2018-10-07T02:56:24.817Z,57.78
2018-10-07T02:58:53.577Z,56.63
2018-10-07T03:01:22.509Z,57.08
2018-10-07T03:03:51.205Z,56.73
2018-10-07T03:06:19.889Z,56.53
2018-10-07T03:08:48.577Z,57.25
2018-10-07T03:11:17.284Z,55.52
2018-10-07T03:13:46.222Z,50.48
2018-10-07T03:16:14.904Z,55.43
2018-10-07T03:18:45.146Z,56.92
2018-10-07T03:21:13.843Z,59.95
2018-10-07T03:23:42.565Z,56.55
2018-10-07T03:26:12.107Z,57.53
2018-10-07T03:28:40.800Z,59.90
2018-10-07T03:31:11.507Z,59.80
2018-10-07T03:33:40.207Z,59.85
2018-10-07T03:36:08.917Z,61.20
2018-10-07T03:38:37.612Z,57.40
2018-10-07T03:41:06.394Z,62.45
2018-10-07T03:43:35.670Z,66.15
2018-10-07T03:46:04.352Z,61.13
2018-10-07T03:48:33.052Z,61.65
2018-10-07T03:51:01.745Z,63.80
2018-10-07T03:53:30.454Z,62.90
2018-10-07T03:55:59.179Z,64.58
2018-10-07T03:58:27.867Z,67.70
2018-10-07T04:00:56.583Z,72.85
2018-10-07T04:03:25.279Z,70.50
2018-10-07T04:05:53.971Z,68.50
2018-10-07T04:08:22.716Z,69.55
2018-10-07T04:10:51.444Z,69.65
2018-10-07T04:13:20.164Z,72.75
2018-10-07T04:15:48.928Z,69.45
2018-10-07T04:18:17.876Z,71.30
2018-10-07T04:20:46.823Z,79.60
2018-10-07T04:23:15.524Z,78.25
2018-10-07T04:25:44.221Z,78.85
2018-10-07T04:28:12.927Z,78.40
2018-10-07T04:30:41.690Z,80.30
2018-10-07T04:33:10.643Z,80.15
2018-10-07T04:35:39.361Z,83.85
2018-10-07T04:38:08.041Z,81.12
2018-10-07T04:40:36.772Z,84.62
2018-10-07T04:43:05.492Z,87.42
2018-10-07T04:45:35.234Z,88.62
2018-10-07T04:48:03.973Z,86.85
2018-10-07T04:50:32.658Z,86.50
2018-10-07T04:53:01.361Z,87.47
2018-10-07T04:55:30.057Z,88.42
2018-10-07T04:58:00.662Z,90.50
2018-10-07T05:00:30.560Z,86.78
2018-10-07T05:02:59.924Z,86.57
2018-10-07T05:05:29.442Z,89.70
2018-10-07T05:07:58.137Z,94.92
2018-10-07T05:10:50.788Z,94.67
2018-10-07T05:13:22.295Z,90.55
2018-10-07T05:15:56.583Z,75.10
2018-10-07T05:18:25.514Z,60.48
2018-10-07T05:20:54.758Z,54.67
2018-10-07T05:23:23.403Z,57.43
2018-10-07T05:25:52.078Z,50.38
2018-10-07T05:28:24.057Z,27.45
2018-10-07T05:30:52.822Z,25.57
2018-10-07T05:33:21.580Z,29.45
2018-10-07T05:35:50.261Z,28.57
2018-10-07T05:38:18.939Z,22.52
2018-10-07T05:40:47.681Z,26.70
2018-10-07T05:43:16.384Z,21.17
2018-10-07T05:45:45.095Z,19.30
2018-10-07T05:48:13.800Z,19.67
2018-10-07T05:50:42.562Z,24.77
2018-10-07T05:53:12.252Z,16.73
2018-10-07T05:55:41.079Z,19.42
2018-10-07T05:58:09.771Z,25.02
2018-10-07T06:00:38.770Z,20.92
2018-10-07T06:03:13.911Z,32.03
2018-10-07T06:05:43.862Z,22.60
2018-10-07T06:08:13.342Z,30.35
2018-10-07T06:10:42.068Z,24.80
2018-10-07T06:13:10.782Z,19.37
2018-10-07T06:15:40.239Z,24.80
2018-10-07T06:18:08.931Z,21.55
2018-10-07T06:20:37.660Z,26.12
2018-10-07T06:23:06.338Z,24.55
2018-10-07T06:25:35.077Z,26.10
2018-10-07T06:28:03.774Z,19.42
2018-10-07T06:30:32.515Z,24.20
2018-10-07T06:33:02.135Z,17.65
2018-10-07T06:35:30.838Z,15.95
2018-10-07T06:37:59.542Z,17.67
2018-10-07T06:40:28.245Z,23.20
2018-10-07T06:42:56.953Z,31.05
2018-10-07T06:45:26.493Z,24.85
2018-10-07T06:47:55.412Z,26.85
2018-10-07T06:50:24.139Z,18.77
2018-10-07T06:52:52.829Z,21.60
2018-10-07T06:55:21.555Z,26.82
2018-10-07T06:57:50.528Z,28.40
2018-10-07T07:00:19.234Z,17.10
2018-10-07T07:02:47.930Z,17.40
2018-10-07T07:05:16.599Z,22.37
2018-10-07T07:07:45.294Z,15.10
2018-10-07T07:10:14.455Z,16.62
2018-10-07T07:12:43.190Z,22.85
2018-10-07T07:15:12.957Z,20.02
2018-10-07T07:17:41.666Z,20.57
2018-10-07T07:20:10.431Z,20.57
2018-10-07T07:22:39.395Z,16.90
2018-10-07T07:25:08.082Z,32.63
2018-10-07T07:27:36.785Z,28.52
2018-10-07T07:30:08.672Z,23.27
2018-10-07T07:32:37.368Z,31.17
2018-10-07T07:35:06.143Z,32.33
2018-10-07T07:37:34.891Z,37.15
2018-10-07T07:40:03.572Z,50.12
2018-10-07T07:42:32.338Z,36.68
2018-10-07T07:45:01.033Z,26.30
2018-10-07T07:47:29.767Z,33.53
2018-10-07T07:49:58.462Z,26.00
2018-10-07T07:52:27.125Z,24.45
2018-10-07T07:54:55.822Z,40.75
2018-10-07T07:57:24.513Z,40.20
2018-10-07T07:59:53.213Z,25.35
2018-10-07T08:02:21.913Z,22.22
2018-10-07T08:04:50.595Z,23.75
2018-10-07T08:07:19.294Z,25.45
2018-10-07T08:09:47.962Z,24.35
2018-10-07T08:12:16.914Z,17.30
2018-10-07T08:14:45.612Z,18.25
2018-10-07T08:17:15.280Z,19.60
2018-10-07T08:19:43.972Z,25.20
2018-10-07T08:22:12.689Z,22.62
2018-10-07T08:24:43.555Z,16.45
2018-10-07T08:27:12.227Z,22.98
2018-10-07T08:29:41.006Z,24.60
2018-10-07T08:32:09.647Z,24.35
2018-10-07T08:34:38.387Z,20.10
2018-10-07T08:37:09.099Z,21.40
2018-10-07T08:39:37.815Z,16.85
2018-10-07T08:42:06.536Z,18.20
2018-10-07T08:44:35.246Z,22.93
2018-10-07T08:47:04.151Z,17.55
2018-10-07T08:49:33.243Z,18.50
2018-10-07T08:52:01.969Z,22.87
2018-10-07T08:54:30.811Z,15.20
2018-10-07T08:56:59.520Z,13.55
2018-10-07T08:59:28.196Z,21.48
2018-10-07T09:01:57.707Z,17.02
2018-10-07T09:04:26.416Z,14.05
2018-10-07T09:06:55.108Z,19.85
2018-10-07T09:09:23.808Z,18.23
2018-10-07T09:11:52.488Z,16.90
2018-10-07T09:14:22.534Z,14.03
2018-10-07T09:16:51.234Z,15.68
2018-10-07T09:19:19.932Z,24.98
2018-10-07T09:21:50.018Z,21.70
